sensor_id;sensor_type;location;lat;lon;timestamp;temperature;humidity
652;DHT22;310;48.490;9.200;2023-04-24T00:01:39;16.80;29.60
652;DHT22;310;48.490;9.200;2023-04-24T00:04:06;16.80;30.50
652;DHT22;310;48.490;9.200;2023-04-24T00:06:32;16.70;31.40
652;DHT22;310;48.490;9.200;2023-04-24T00:09:02;16.70;29.70
652;DHT22;310;48.490;9.200;2023-04-24T00:11:29;16.80;30.20
652;DHT22;310;48.490;9.200;2023-04-24T00:13:55;16.80;29.10
652;DHT22;310;48.490;9.200;2023-04-24T00:16:21;16.50;29.30
652;DHT22;310;48.490;9.200;2023-04-24T00:18:47;16.10;30.50
652;DHT22;310;48.490;9.200;2023-04-24T00:21:14;16.20;29.90
652;DHT22;310;48.490;9.200;2023-04-24T00:23:40;16.20;31.30
652;DHT22;310;48.490;9.200;2023-04-24T00:26:05;16.40;29.80
652;DHT22;310;48.490;9.200;2023-04-24T00:28:31;16.60;30.00
652;DHT22;310;48.490;9.200;2023-04-24T00:30:57;16.50;29.30
652;DHT22;310;48.490;9.200;2023-04-24T00:33:22;16.40;29.90
652;DHT22;310;48.490;9.200;2023-04-24T00:35:48;16.60;30.80
652;DHT22;310;48.490;9.200;2023-04-24T00:38:13;16.40;30.60
652;DHT22;310;48.490;9.200;2023-04-24T00:40:39;16.40;29.90
652;DHT22;310;48.490;9.200;2023-04-24T00:43:05;16.50;31.30
652;DHT22;310;48.490;9.200;2023-04-24T00:45:30;16.80;31.50
652;DHT22;310;48.490;9.200;2023-04-24T00:47:56;16.80;29.30
652;DHT22;310;48.490;9.200;2023-04-24T00:50:24;16.70;29.20
652;DHT22;310;48.490;9.200;2023-04-24T00:52:50;16.80;29.10
652;DHT22;310;48.490;9.200;2023-04-24T00:55:16;16.80;29.70
652;DHT22;310;48.490;9.200;2023-04-24T00:57:43;16.90;30.20
652;DHT22;310;48.490;9.200;2023-04-24T01:00:10;16.80;29.80
652;DHT22;310;48.490;9.200;2023-04-24T01:02:37;17.00;29.30
652;DHT22;310;48.490;9.200;2023-04-24T01:05:06;17.10;30.60
652;DHT22;310;48.490;9.200;2023-04-24T01:07:32;17.10;31.50
652;DHT22;310;48.490;9.200;2023-04-24T01:09:58;16.90;31.50
652;DHT22;310;48.490;9.200;2023-04-24T01:12:24;16.80;30.90
652;DHT22;310;48.490;9.200;2023-04-24T01:14:50;16.70;32.80
652;DHT22;310;48.490;9.200;2023-04-24T01:17:16;16.60;33.10
652;DHT22;310;48.490;9.200;2023-04-24T01:19:42;16.60;37.50
652;DHT22;310;48.490;9.200;2023-04-24T01:22:14;16.30;37.50
652;DHT22;310;48.490;9.200;2023-04-24T01:24:41;16.10;36.80
652;DHT22;310;48.490;9.200;2023-04-24T01:27:07;16.20;36.20
652;DHT22;310;48.490;9.200;2023-04-24T01:29:34;16.30;37.20
652;DHT22;310;48.490;9.200;2023-04-24T01:31:59;16.50;39.70
652;DHT22;310;48.490;9.200;2023-04-24T01:34:25;16.40;37.60
652;DHT22;310;48.490;9.200;2023-04-24T01:36:51;16.10;38.20
652;DHT22;310;48.490;9.200;2023-04-24T01:39:17;16.20;39.90
652;DHT22;310;48.490;9.200;2023-04-24T01:41:43;16.10;40.50
652;DHT22;310;48.490;9.200;2023-04-24T01:44:08;16.00;41.30
652;DHT22;310;48.490;9.200;2023-04-24T01:46:34;15.90;42.40
652;DHT22;310;48.490;9.200;2023-04-24T01:49:02;15.90;42.10
652;DHT22;310;48.490;9.200;2023-04-24T01:51:27;16.00;41.30
652;DHT22;310;48.490;9.200;2023-04-24T01:53:53;16.00;41.40
652;DHT22;310;48.490;9.200;2023-04-24T01:56:21;16.00;41.90
652;DHT22;310;48.490;9.200;2023-04-24T01:58:48;16.10;41.50
652;DHT22;310;48.490;9.200;2023-04-24T02:01:20;16.10;41.80
652;DHT22;310;48.490;9.200;2023-04-24T02:03:46;16.00;42.20
652;DHT22;310;48.490;9.200;2023-04-24T02:06:12;16.10;42.40
652;DHT22;310;48.490;9.200;2023-04-24T02:08:37;16.10;42.30
652;DHT22;310;48.490;9.200;2023-04-24T02:11:03;16.00;42.60
652;DHT22;310;48.490;9.200;2023-04-24T02:13:29;16.00;42.60
652;DHT22;310;48.490;9.200;2023-04-24T02:15:54;16.00;43.70
652;DHT22;310;48.490;9.200;2023-04-24T02:18:20;16.00;44.40
652;DHT22;310;48.490;9.200;2023-04-24T02:20:47;16.10;43.20
652;DHT22;310;48.490;9.200;2023-04-24T02:23:13;16.00;44.00
652;DHT22;310;48.490;9.200;2023-04-24T02:25:39;16.10;43.50
652;DHT22;310;48.490;9.200;2023-04-24T02:28:04;15.90;44.20
652;DHT22;310;48.490;9.200;2023-04-24T02:30:30;15.80;45.20
652;DHT22;310;48.490;9.200;2023-04-24T02:32:56;15.80;42.60
652;DHT22;310;48.490;9.200;2023-04-24T02:35:21;15.80;44.70
652;DHT22;310;48.490;9.200;2023-04-24T02:37:47;15.70;45.70
652;DHT22;310;48.490;9.200;2023-04-24T02:40:13;15.60;46.40
652;DHT22;310;48.490;9.200;2023-04-24T02:42:38;15.60;46.80
652;DHT22;310;48.490;9.200;2023-04-24T02:45:04;15.50;46.50
652;DHT22;310;48.490;9.200;2023-04-24T02:47:30;15.60;46.70
652;DHT22;310;48.490;9.200;2023-04-24T02:49:56;15.40;47.00
652;DHT22;310;48.490;9.200;2023-04-24T02:52:21;15.50;47.50
652;DHT22;310;48.490;9.200;2023-04-24T02:54:47;15.50;47.80
652;DHT22;310;48.490;9.200;2023-04-24T02:57:12;15.50;47.00
652;DHT22;310;48.490;9.200;2023-04-24T02:59:38;15.40;47.90
652;DHT22;310;48.490;9.200;2023-04-24T03:02:04;15.50;47.60
652;DHT22;310;48.490;9.200;2023-04-24T03:04:29;15.60;47.30
652;DHT22;310;48.490;9.200;2023-04-24T03:06:55;15.60;46.80
652;DHT22;310;48.490;9.200;2023-04-24T03:09:21;15.60;47.20
652;DHT22;310;48.490;9.200;2023-04-24T03:11:47;15.50;47.50
652;DHT22;310;48.490;9.200;2023-04-24T03:14:14;15.60;46.50
652;DHT22;310;48.490;9.200;2023-04-24T03:16:40;15.50;43.90
652;DHT22;310;48.490;9.200;2023-04-24T03:19:06;15.40;44.70
652;DHT22;310;48.490;9.200;2023-04-24T03:21:31;14.90;47.50
652;DHT22;310;48.490;9.200;2023-04-24T03:23:57;15.10;47.70
652;DHT22;310;48.490;9.200;2023-04-24T03:26:23;15.20;48.50
652;DHT22;310;48.490;9.200;2023-04-24T03:28:48;15.40;48.40
652;DHT22;310;48.490;9.200;2023-04-24T03:31:14;15.40;48.60
652;DHT22;310;48.490;9.200;2023-04-24T03:33:40;15.40;47.20
652;DHT22;310;48.490;9.200;2023-04-24T03:36:06;15.50;47.90
652;DHT22;310;48.490;9.200;2023-04-24T03:38:32;15.50;48.00
652;DHT22;310;48.490;9.200;2023-04-24T03:40:58;15.50;44.40
652;DHT22;310;48.490;9.200;2023-04-24T03:43:23;15.00;45.20
652;DHT22;310;48.490;9.200;2023-04-24T03:45:49;15.00;46.00
652;DHT22;310;48.490;9.200;2023-04-24T03:48:14;14.40;47.30
652;DHT22;310;48.490;9.200;2023-04-24T03:50:40;14.80;48.30
652;DHT22;310;48.490;9.200;2023-04-24T03:53:06;14.50;46.10
652;DHT22;310;48.490;9.200;2023-04-24T03:55:31;14.60;48.60
652;DHT22;310;48.490;9.200;2023-04-24T03:57:57;14.70;49.20
652;DHT22;310;48.490;9.200;2023-04-24T04:00:22;14.90;48.60
652;DHT22;310;48.490;9.200;2023-04-24T04:02:48;15.10;48.20
652;DHT22;310;48.490;9.200;2023-04-24T04:05:14;15.10;48.50
652;DHT22;310;48.490;9.200;2023-04-24T04:07:39;15.10;48.50
652;DHT22;310;48.490;9.200;2023-04-24T04:10:05;15.00;48.50
652;DHT22;310;48.490;9.200;2023-04-24T04:12:32;14.90;48.50
652;DHT22;310;48.490;9.200;2023-04-24T04:14:58;15.00;48.40
652;DHT22;310;48.490;9.200;2023-04-24T04:17:23;15.00;48.30
652;DHT22;310;48.490;9.200;2023-04-24T04:19:49;15.00;48.40
652;DHT22;310;48.490;9.200;2023-04-24T04:22:14;15.10;49.00
652;DHT22;310;48.490;9.200;2023-04-24T04:24:40;15.20;48.50
652;DHT22;310;48.490;9.200;2023-04-24T04:27:06;15.30;48.00
652;DHT22;310;48.490;9.200;2023-04-24T04:29:32;15.40;48.30
652;DHT22;310;48.490;9.200;2023-04-24T04:31:58;15.30;48.20
652;DHT22;310;48.490;9.200;2023-04-24T04:34:24;15.30;49.10
652;DHT22;310;48.490;9.200;2023-04-24T04:36:49;15.30;48.60
652;DHT22;310;48.490;9.200;2023-04-24T04:39:15;15.30;48.90
652;DHT22;310;48.490;9.200;2023-04-24T04:41:41;15.30;48.80
652;DHT22;310;48.490;9.200;2023-04-24T04:44:07;15.30;48.70
652;DHT22;310;48.490;9.200;2023-04-24T04:46:34;15.40;48.60
652;DHT22;310;48.490;9.200;2023-04-24T04:49:02;15.40;48.80
652;DHT22;310;48.490;9.200;2023-04-24T04:51:28;15.30;47.00
652;DHT22;310;48.490;9.200;2023-04-24T04:53:54;14.70;48.90
652;DHT22;310;48.490;9.200;2023-04-24T04:56:20;13.60;56.00
652;DHT22;310;48.490;9.200;2023-04-24T04:58:45;13.30;63.00
652;DHT22;310;48.490;9.200;2023-04-24T05:01:11;12.60;72.00
652;DHT22;310;48.490;9.200;2023-04-24T05:03:37;12.40;77.20
652;DHT22;310;48.490;9.200;2023-04-24T05:06:02;12.70;67.90
652;DHT22;310;48.490;9.200;2023-04-24T05:08:28;12.50;67.40
652;DHT22;310;48.490;9.200;2023-04-24T05:10:54;12.80;67.50
652;DHT22;310;48.490;9.200;2023-04-24T05:13:20;13.10;62.90
652;DHT22;310;48.490;9.200;2023-04-24T05:15:46;13.20;64.00
652;DHT22;310;48.490;9.200;2023-04-24T05:18:12;13.00;59.70
652;DHT22;310;48.490;9.200;2023-04-24T05:20:37;12.90;57.20
652;DHT22;310;48.490;9.200;2023-04-24T05:23:03;13.10;53.90
652;DHT22;310;48.490;9.200;2023-04-24T05:25:29;13.30;54.40
652;DHT22;310;48.490;9.200;2023-04-24T05:27:57;13.20;54.40
652;DHT22;310;48.490;9.200;2023-04-24T05:30:23;13.20;50.50
652;DHT22;310;48.490;9.200;2023-04-24T05:32:48;13.10;52.20
652;DHT22;310;48.490;9.200;2023-04-24T05:35:14;13.30;52.50
652;DHT22;310;48.490;9.200;2023-04-24T05:37:39;13.00;50.80
652;DHT22;310;48.490;9.200;2023-04-24T05:40:05;12.60;53.60
652;DHT22;310;48.490;9.200;2023-04-24T05:42:31;12.50;54.80
652;DHT22;310;48.490;9.200;2023-04-24T05:44:57;12.50;57.60
652;DHT22;310;48.490;9.200;2023-04-24T05:47:23;13.10;56.10
652;DHT22;310;48.490;9.200;2023-04-24T05:49:48;13.00;55.30
652;DHT22;310;48.490;9.200;2023-04-24T05:52:14;13.10;53.00
652;DHT22;310;48.490;9.200;2023-04-24T05:54:39;13.20;49.40
652;DHT22;310;48.490;9.200;2023-04-24T05:57:05;13.40;49.90
652;DHT22;310;48.490;9.200;2023-04-24T05:59:37;13.30;53.10
652;DHT22;310;48.490;9.200;2023-04-24T06:02:07;13.50;51.30
652;DHT22;310;48.490;9.200;2023-04-24T06:04:33;13.70;50.20
652;DHT22;310;48.490;9.200;2023-04-24T06:06:59;13.60;47.30
652;DHT22;310;48.490;9.200;2023-04-24T06:09:25;13.70;47.00
652;DHT22;310;48.490;9.200;2023-04-24T06:11:51;13.80;46.80
652;DHT22;310;48.490;9.200;2023-04-24T06:14:21;13.60;48.30
652;DHT22;310;48.490;9.200;2023-04-24T06:16:47;13.60;46.90
652;DHT22;310;48.490;9.200;2023-04-24T06:19:13;13.40;47.70
652;DHT22;310;48.490;9.200;2023-04-24T06:21:38;13.90;48.70
652;DHT22;310;48.490;9.200;2023-04-24T06:24:04;14.10;46.70
652;DHT22;310;48.490;9.200;2023-04-24T06:26:30;13.90;45.70
652;DHT22;310;48.490;9.200;2023-04-24T06:28:56;13.30;47.50
652;DHT22;310;48.490;9.200;2023-04-24T06:31:21;13.20;49.90
652;DHT22;310;48.490;9.200;2023-04-24T06:33:48;12.90;48.90
652;DHT22;310;48.490;9.200;2023-04-24T06:36:14;13.40;51.70
652;DHT22;310;48.490;9.200;2023-04-24T06:38:39;13.50;47.00
652;DHT22;310;48.490;9.200;2023-04-24T06:41:05;13.80;44.30
652;DHT22;310;48.490;9.200;2023-04-24T06:43:34;13.40;47.70
652;DHT22;310;48.490;9.200;2023-04-24T06:46:00;13.70;47.40
652;DHT22;310;48.490;9.200;2023-04-24T06:48:25;13.80;47.70
652;DHT22;310;48.490;9.200;2023-04-24T06:50:51;13.80;46.60
652;DHT22;310;48.490;9.200;2023-04-24T06:53:17;14.00;46.30
652;DHT22;310;48.490;9.200;2023-04-24T06:55:43;13.80;44.70
652;DHT22;310;48.490;9.200;2023-04-24T06:58:10;13.80;45.30
652;DHT22;310;48.490;9.200;2023-04-24T07:00:36;13.90;40.70
652;DHT22;310;48.490;9.200;2023-04-24T07:03:02;13.80;42.70
652;DHT22;310;48.490;9.200;2023-04-24T07:05:28;13.90;44.10
652;DHT22;310;48.490;9.200;2023-04-24T07:07:54;13.70;41.70
652;DHT22;310;48.490;9.200;2023-04-24T07:10:20;13.90;41.70
652;DHT22;310;48.490;9.200;2023-04-24T07:12:46;13.80;43.70
652;DHT22;310;48.490;9.200;2023-04-24T07:15:12;14.30;41.20
652;DHT22;310;48.490;9.200;2023-04-24T07:17:38;14.10;41.20
652;DHT22;310;48.490;9.200;2023-04-24T07:20:04;14.00;41.00
652;DHT22;310;48.490;9.200;2023-04-24T07:22:30;14.30;44.10
652;DHT22;310;48.490;9.200;2023-04-24T07:24:56;14.20;42.30
652;DHT22;310;48.490;9.200;2023-04-24T07:27:22;14.50;39.50
652;DHT22;310;48.490;9.200;2023-04-24T07:29:47;13.90;41.50
652;DHT22;310;48.490;9.200;2023-04-24T07:32:13;14.10;42.50
652;DHT22;310;48.490;9.200;2023-04-24T07:34:39;13.80;44.00
652;DHT22;310;48.490;9.200;2023-04-24T07:37:04;13.70;45.00
652;DHT22;310;48.490;9.200;2023-04-24T07:39:30;13.60;46.10
652;DHT22;310;48.490;9.200;2023-04-24T07:41:57;13.20;51.50
652;DHT22;310;48.490;9.200;2023-04-24T07:44:27;13.20;53.20
652;DHT22;310;48.490;9.200;2023-04-24T07:46:53;12.90;54.50
652;DHT22;310;48.490;9.200;2023-04-24T07:49:19;12.70;56.10
652;DHT22;310;48.490;9.200;2023-04-24T07:51:45;13.10;54.90
652;DHT22;310;48.490;9.200;2023-04-24T07:54:10;13.60;51.90
652;DHT22;310;48.490;9.200;2023-04-24T07:56:36;13.30;47.90
652;DHT22;310;48.490;9.200;2023-04-24T07:59:04;13.30;48.40
652;DHT22;310;48.490;9.200;2023-04-24T08:01:30;13.00;44.00
652;DHT22;310;48.490;9.200;2023-04-24T08:03:56;12.70;47.30
652;DHT22;310;48.490;9.200;2023-04-24T08:06:21;13.30;46.20
652;DHT22;310;48.490;9.200;2023-04-24T08:08:47;13.50;43.20
652;DHT22;310;48.490;9.200;2023-04-24T08:11:13;13.90;39.60
652;DHT22;310;48.490;9.200;2023-04-24T08:13:38;13.50;41.60
652;DHT22;310;48.490;9.200;2023-04-24T08:16:04;13.90;42.30
652;DHT22;310;48.490;9.200;2023-04-24T08:18:30;14.40;39.10
652;DHT22;310;48.490;9.200;2023-04-24T08:20:55;14.00;39.10
652;DHT22;310;48.490;9.200;2023-04-24T08:23:26;14.20;38.50
652;DHT22;310;48.490;9.200;2023-04-24T08:25:52;14.00;37.20
652;DHT22;310;48.490;9.200;2023-04-24T08:28:17;14.20;34.30
652;DHT22;310;48.490;9.200;2023-04-24T08:30:45;13.50;36.40
652;DHT22;310;48.490;9.200;2023-04-24T08:33:13;13.30;36.60
652;DHT22;310;48.490;9.200;2023-04-24T08:35:38;12.60;35.60
652;DHT22;310;48.490;9.200;2023-04-24T08:38:04;12.40;36.20
652;DHT22;310;48.490;9.200;2023-04-24T08:40:34;12.40;37.60
652;DHT22;310;48.490;9.200;2023-04-24T08:43:00;12.60;35.60
652;DHT22;310;48.490;9.200;2023-04-24T08:45:26;12.70;36.10
652;DHT22;310;48.490;9.200;2023-04-24T08:47:54;12.40;35.50
652;DHT22;310;48.490;9.200;2023-04-24T08:50:21;12.30;36.10
652;DHT22;310;48.490;9.200;2023-04-24T08:52:50;12.90;35.00
652;DHT22;310;48.490;9.200;2023-04-24T08:55:16;13.20;34.40
652;DHT22;310;48.490;9.200;2023-04-24T08:57:49;12.80;34.40
652;DHT22;310;48.490;9.200;2023-04-24T09:00:16;12.30;33.50
652;DHT22;310;48.490;9.200;2023-04-24T09:02:43;12.40;34.60
652;DHT22;310;48.490;9.200;2023-04-24T09:05:10;12.40;33.50
652;DHT22;310;48.490;9.200;2023-04-24T09:07:39;12.40;34.60
652;DHT22;310;48.490;9.200;2023-04-24T09:10:06;12.60;32.90
652;DHT22;310;48.490;9.200;2023-04-24T09:12:34;12.30;33.30
652;DHT22;310;48.490;9.200;2023-04-24T09:15:00;12.90;34.00
652;DHT22;310;48.490;9.200;2023-04-24T09:17:26;13.20;33.00
652;DHT22;310;48.490;9.200;2023-04-24T09:19:53;13.20;32.20
652;DHT22;310;48.490;9.200;2023-04-24T09:22:20;13.40;31.30
652;DHT22;310;48.490;9.200;2023-04-24T09:24:46;13.20;33.00
652;DHT22;310;48.490;9.200;2023-04-24T09:27:13;13.40;30.90
652;DHT22;310;48.490;9.200;2023-04-24T09:29:54;13.50;31.20
652;DHT22;310;48.490;9.200;2023-04-24T09:32:21;13.40;29.80
652;DHT22;310;48.490;9.200;2023-04-24T09:34:48;13.00;31.20
652;DHT22;310;48.490;9.200;2023-04-24T09:37:29;13.10;31.00
652;DHT22;310;48.490;9.200;2023-04-24T09:40:19;12.90;32.50
652;DHT22;310;48.490;9.200;2023-04-24T09:42:55;13.20;32.20
652;DHT22;310;48.490;9.200;2023-04-24T09:45:36;13.60;32.50
652;DHT22;310;48.490;9.200;2023-04-24T09:48:02;13.20;32.30
652;DHT22;310;48.490;9.200;2023-04-24T09:50:30;13.70;30.90
652;DHT22;310;48.490;9.200;2023-04-24T09:53:06;13.60;30.60
652;DHT22;310;48.490;9.200;2023-04-24T09:55:39;13.60;29.80
652;DHT22;310;48.490;9.200;2023-04-24T09:58:08;13.10;31.20
652;DHT22;310;48.490;9.200;2023-04-24T10:00:33;13.30;31.70
652;DHT22;310;48.490;9.200;2023-04-24T10:03:00;14.30;30.30
652;DHT22;310;48.490;9.200;2023-04-24T10:05:34;14.70;30.00
652;DHT22;310;48.490;9.200;2023-04-24T10:08:05;14.90;29.10
652;DHT22;310;48.490;9.200;2023-04-24T10:10:31;15.10;28.00
652;DHT22;310;48.490;9.200;2023-04-24T10:12:58;14.40;28.60
652;DHT22;310;48.490;9.200;2023-04-24T10:15:25;14.70;29.50
652;DHT22;310;48.490;9.200;2023-04-24T10:17:51;14.60;29.30
652;DHT22;310;48.490;9.200;2023-04-24T10:20:22;14.30;29.80
652;DHT22;310;48.490;9.200;2023-04-24T10:22:49;14.00;31.40
652;DHT22;310;48.490;9.200;2023-04-24T10:25:20;14.40;28.60
652;DHT22;310;48.490;9.200;2023-04-24T10:27:47;14.70;27.40
652;DHT22;310;48.490;9.200;2023-04-24T10:30:14;14.20;27.20
652;DHT22;310;48.490;9.200;2023-04-24T10:32:40;14.30;28.20
652;DHT22;310;48.490;9.200;2023-04-24T10:35:13;14.40;26.60
652;DHT22;310;48.490;9.200;2023-04-24T10:37:48;14.50;25.90
652;DHT22;310;48.490;9.200;2023-04-24T10:40:19;14.40;27.30
652;DHT22;310;48.490;9.200;2023-04-24T10:42:51;15.00;24.80
652;DHT22;310;48.490;9.200;2023-04-24T10:45:20;14.40;25.50
652;DHT22;310;48.490;9.200;2023-04-24T10:50:22;15.30;23.90
652;DHT22;310;48.490;9.200;2023-04-24T10:52:48;15.10;24.00
652;DHT22;310;48.490;9.200;2023-04-24T10:55:17;14.50;24.90
652;DHT22;310;48.490;9.200;2023-04-24T10:58:03;14.10;25.70
652;DHT22;310;48.490;9.200;2023-04-24T11:00:29;13.90;26.20
652;DHT22;310;48.490;9.200;2023-04-24T11:02:55;14.10;26.40
652;DHT22;310;48.490;9.200;2023-04-24T11:05:22;13.80;27.10
652;DHT22;310;48.490;9.200;2023-04-24T11:08:10;13.90;28.20
652;DHT22;310;48.490;9.200;2023-04-24T11:10:44;13.70;28.70
652;DHT22;310;48.490;9.200;2023-04-24T11:13:10;12.90;29.90
652;DHT22;310;48.490;9.200;2023-04-24T11:15:35;12.90;30.20
652;DHT22;310;48.490;9.200;2023-04-24T11:18:01;13.40;30.00
652;DHT22;310;48.490;9.200;2023-04-24T11:20:27;13.90;30.10
652;DHT22;310;48.490;9.200;2023-04-24T11:22:54;13.40;29.90
652;DHT22;310;48.490;9.200;2023-04-24T11:25:21;13.30;29.00
652;DHT22;310;48.490;9.200;2023-04-24T11:27:48;13.70;27.90
652;DHT22;310;48.490;9.200;2023-04-24T11:30:19;14.40;27.40
652;DHT22;310;48.490;9.200;2023-04-24T11:32:50;13.90;28.40
652;DHT22;310;48.490;9.200;2023-04-24T11:35:21;13.90;28.80
652;DHT22;310;48.490;9.200;2023-04-24T11:37:51;14.80;27.70
652;DHT22;310;48.490;9.200;2023-04-24T11:40:18;15.30;27.10
652;DHT22;310;48.490;9.200;2023-04-24T11:42:51;15.60;26.40
652;DHT22;310;48.490;9.200;2023-04-24T11:45:22;14.60;26.00
652;DHT22;310;48.490;9.200;2023-04-24T11:47:49;14.20;27.60
652;DHT22;310;48.490;9.200;2023-04-24T11:50:21;14.70;26.70
652;DHT22;310;48.490;9.200;2023-04-24T11:52:48;14.90;26.80
652;DHT22;310;48.490;9.200;2023-04-24T11:57:47;13.50;28.60
652;DHT22;310;48.490;9.200;2023-04-24T12:00:17;13.70;28.30
652;DHT22;310;48.490;9.200;2023-04-24T12:02:43;13.80;28.40
652;DHT22;310;48.490;9.200;2023-04-24T12:05:12;13.60;28.90
652;DHT22;310;48.490;9.200;2023-04-24T12:07:44;14.00;28.10
652;DHT22;310;48.490;9.200;2023-04-24T12:10:10;13.80;28.20
652;DHT22;310;48.490;9.200;2023-04-24T12:12:35;13.70;28.40
652;DHT22;310;48.490;9.200;2023-04-24T12:15:06;14.00;28.30
652;DHT22;310;48.490;9.200;2023-04-24T12:17:33;13.90;28.10
652;DHT22;310;48.490;9.200;2023-04-24T12:20:08;13.60;29.10
652;DHT22;310;48.490;9.200;2023-04-24T12:22:51;13.30;29.20
652;DHT22;310;48.490;9.200;2023-04-24T12:25:21;13.30;30.60
652;DHT22;310;48.490;9.200;2023-04-24T12:27:52;12.80;32.10
652;DHT22;310;48.490;9.200;2023-04-24T12:30:19;13.40;30.00
652;DHT22;310;48.490;9.200;2023-04-24T12:32:46;13.90;27.90
652;DHT22;310;48.490;9.200;2023-04-24T12:35:13;13.90;27.90
652;DHT22;310;48.490;9.200;2023-04-24T12:37:38;14.60;27.00
652;DHT22;310;48.490;9.200;2023-04-24T12:40:09;15.60;26.50
652;DHT22;310;48.490;9.200;2023-04-24T12:42:41;15.70;24.80
652;DHT22;310;48.490;9.200;2023-04-24T12:45:07;15.00;25.60
652;DHT22;310;48.490;9.200;2023-04-24T12:47:34;15.40;25.20
652;DHT22;310;48.490;9.200;2023-04-24T12:50:00;15.90;24.20
652;DHT22;310;48.490;9.200;2023-04-24T12:52:27;16.60;24.20
652;DHT22;310;48.490;9.200;2023-04-24T12:54:54;17.40;22.90
652;DHT22;310;48.490;9.200;2023-04-24T12:57:21;16.60;23.50
652;DHT22;310;48.490;9.200;2023-04-24T12:59:47;16.10;25.00
652;DHT22;310;48.490;9.200;2023-04-24T13:02:13;15.10;24.50
652;DHT22;310;48.490;9.200;2023-04-24T13:04:38;15.40;24.40
652;DHT22;310;48.490;9.200;2023-04-24T13:07:05;16.20;24.70
652;DHT22;310;48.490;9.200;2023-04-24T13:09:31;18.70;22.00
652;DHT22;310;48.490;9.200;2023-04-24T13:12:04;18.20;21.80
652;DHT22;310;48.490;9.200;2023-04-24T13:14:31;16.70;22.30
652;DHT22;310;48.490;9.200;2023-04-24T13:16:57;17.40;22.50
652;DHT22;310;48.490;9.200;2023-04-24T13:19:24;17.30;23.00
652;DHT22;310;48.490;9.200;2023-04-24T13:21:52;17.50;21.70
652;DHT22;310;48.490;9.200;2023-04-24T13:24:18;19.00;20.50
652;DHT22;310;48.490;9.200;2023-04-24T13:26:43;20.20;19.80
652;DHT22;310;48.490;9.200;2023-04-24T13:29:09;21.10;18.20
652;DHT22;310;48.490;9.200;2023-04-24T13:31:35;23.60;15.30
652;DHT22;310;48.490;9.200;2023-04-24T13:34:02;20.10;17.10
652;DHT22;310;48.490;9.200;2023-04-24T13:36:28;17.90;21.40
652;DHT22;310;48.490;9.200;2023-04-24T13:38:53;17.40;21.20
652;DHT22;310;48.490;9.200;2023-04-24T13:41:19;16.50;22.70
652;DHT22;310;48.490;9.200;2023-04-24T13:43:45;15.90;23.00
652;DHT22;310;48.490;9.200;2023-04-24T13:46:11;15.30;24.30
652;DHT22;310;48.490;9.200;2023-04-24T13:48:36;15.10;24.40
652;DHT22;310;48.490;9.200;2023-04-24T13:51:02;15.10;24.80
652;DHT22;310;48.490;9.200;2023-04-24T13:53:28;15.60;23.80
652;DHT22;310;48.490;9.200;2023-04-24T13:55:53;15.40;23.50
652;DHT22;310;48.490;9.200;2023-04-24T13:58:19;15.40;25.20
652;DHT22;310;48.490;9.200;2023-04-24T14:00:44;15.60;25.40
652;DHT22;310;48.490;9.200;2023-04-24T14:03:10;15.90;23.30
652;DHT22;310;48.490;9.200;2023-04-24T14:05:36;15.60;23.50
652;DHT22;310;48.490;9.200;2023-04-24T14:08:01;15.60;24.80
652;DHT22;310;48.490;9.200;2023-04-24T14:10:27;15.40;23.90
652;DHT22;310;48.490;9.200;2023-04-24T14:12:53;14.80;24.40
652;DHT22;310;48.490;9.200;2023-04-24T14:15:19;14.60;25.20
652;DHT22;310;48.490;9.200;2023-04-24T14:17:44;15.10;25.40
652;DHT22;310;48.490;9.200;2023-04-24T14:20:12;14.70;25.00
652;DHT22;310;48.490;9.200;2023-04-24T14:22:38;14.40;25.30
652;DHT22;310;48.490;9.200;2023-04-24T14:25:05;14.70;25.60
652;DHT22;310;48.490;9.200;2023-04-24T14:27:32;14.60;26.20
652;DHT22;310;48.490;9.200;2023-04-24T14:29:57;14.60;25.40
652;DHT22;310;48.490;9.200;2023-04-24T14:32:23;14.70;25.80
652;DHT22;310;48.490;9.200;2023-04-24T14:34:49;14.30;25.50
652;DHT22;310;48.490;9.200;2023-04-24T14:37:14;13.80;25.30
652;DHT22;310;48.490;9.200;2023-04-24T14:39:40;13.60;25.90
652;DHT22;310;48.490;9.200;2023-04-24T14:42:06;14.30;25.60
652;DHT22;310;48.490;9.200;2023-04-24T14:44:32;14.20;25.30
652;DHT22;310;48.490;9.200;2023-04-24T14:46:58;14.40;26.00
652;DHT22;310;48.490;9.200;2023-04-24T14:49:24;14.60;24.00
652;DHT22;310;48.490;9.200;2023-04-24T14:51:50;14.30;25.80
652;DHT22;310;48.490;9.200;2023-04-24T14:54:15;14.60;25.90
652;DHT22;310;48.490;9.200;2023-04-24T14:56:41;15.10;24.70
652;DHT22;310;48.490;9.200;2023-04-24T14:59:08;15.50;24.80
652;DHT22;310;48.490;9.200;2023-04-24T15:01:33;15.70;23.10
652;DHT22;310;48.490;9.200;2023-04-24T15:03:59;15.10;24.70
652;DHT22;310;48.490;9.200;2023-04-24T15:06:25;14.70;25.30
652;DHT22;310;48.490;9.200;2023-04-24T15:08:50;14.60;25.70
652;DHT22;310;48.490;9.200;2023-04-24T15:11:16;14.70;26.30
652;DHT22;310;48.490;9.200;2023-04-24T15:13:42;15.10;26.40
652;DHT22;310;48.490;9.200;2023-04-24T15:16:10;15.30;25.90
652;DHT22;310;48.490;9.200;2023-04-24T15:18:36;15.20;25.20
652;DHT22;310;48.490;9.200;2023-04-24T15:21:02;15.10;25.60
652;DHT22;310;48.490;9.200;2023-04-24T15:23:27;15.10;25.50
652;DHT22;310;48.490;9.200;2023-04-24T15:25:53;15.00;25.50
652;DHT22;310;48.490;9.200;2023-04-24T15:28:19;14.90;26.30
652;DHT22;310;48.490;9.200;2023-04-24T15:30:44;14.90;26.00
652;DHT22;310;48.490;9.200;2023-04-24T15:33:10;15.20;26.00
652;DHT22;310;48.490;9.200;2023-04-24T15:35:36;15.40;26.10
652;DHT22;310;48.490;9.200;2023-04-24T15:38:01;15.00;26.10
652;DHT22;310;48.490;9.200;2023-04-24T15:40:27;14.20;26.40
652;DHT22;310;48.490;9.200;2023-04-24T15:42:53;14.70;26.30
652;DHT22;310;48.490;9.200;2023-04-24T15:45:19;14.90;25.90
652;DHT22;310;48.490;9.200;2023-04-24T15:47:45;15.10;25.60
652;DHT22;310;48.490;9.200;2023-04-24T15:50:14;14.70;25.40
652;DHT22;310;48.490;9.200;2023-04-24T15:52:44;14.70;25.50
652;DHT22;310;48.490;9.200;2023-04-24T15:55:10;14.30;25.90
652;DHT22;310;48.490;9.200;2023-04-24T15:57:36;14.60;26.80
652;DHT22;310;48.490;9.200;2023-04-24T16:00:03;14.50;26.40
652;DHT22;310;48.490;9.200;2023-04-24T16:02:31;14.90;25.60
652;DHT22;310;48.490;9.200;2023-04-24T16:04:57;15.20;25.30
652;DHT22;310;48.490;9.200;2023-04-24T16:07:22;15.30;25.10
652;DHT22;310;48.490;9.200;2023-04-24T16:09:48;15.80;24.40
652;DHT22;310;48.490;9.200;2023-04-24T16:12:14;16.30;24.60
652;DHT22;310;48.490;9.200;2023-04-24T16:14:40;15.90;24.40
652;DHT22;310;48.490;9.200;2023-04-24T16:17:05;15.10;25.70
652;DHT22;310;48.490;9.200;2023-04-24T16:19:31;15.20;26.10
652;DHT22;310;48.490;9.200;2023-04-24T16:21:58;16.00;24.60
652;DHT22;310;48.490;9.200;2023-04-24T16:24:24;16.60;24.90
652;DHT22;310;48.490;9.200;2023-04-24T16:26:51;16.50;23.90
652;DHT22;310;48.490;9.200;2023-04-24T16:29:17;16.20;24.60
652;DHT22;310;48.490;9.200;2023-04-24T16:31:43;15.90;25.30
652;DHT22;310;48.490;9.200;2023-04-24T16:34:09;15.60;24.80
652;DHT22;310;48.490;9.200;2023-04-24T16:36:35;15.30;25.60